createdAt,value
2019-05-19T00:00:31.885Z,1002.21
2019-05-19T00:01:31.876Z,1002.20
2019-05-19T00:02:31.857Z,1002.24
2019-05-19T00:03:31.886Z,1002.28
2019-05-19T00:04:31.844Z,1002.19
2019-05-19T00:05:31.828Z,1002.26
2019-05-19T00:06:31.820Z,1002.24
2019-05-19T00:07:31.803Z,1002.25
2019-05-19T00:08:31.802Z,1002.28
2019-05-19T00:09:31.814Z,1002.24
2019-05-19T00:10:31.777Z,1002.26
2019-05-19T00:11:31.759Z,1002.26
2019-05-19T00:12:31.765Z,1002.30
2019-05-19T00:13:31.764Z,1002.26
2019-05-19T00:14:31.731Z,1002.28
2019-05-19T00:15:31.727Z,1002.27
2019-05-19T00:16:31.768Z,1002.28
2019-05-19T00:17:31.697Z,1002.29
2019-05-19T00:18:31.685Z,1002.25
2019-05-19T00:19:31.680Z,1002.28
2019-05-19T00:20:31.680Z,1002.27
2019-05-19T00:21:32.376Z,1002.29
2019-05-19T00:22:31.637Z,1002.32
2019-05-19T00:23:31.625Z,1002.35
2019-05-19T00:24:31.615Z,1002.33
2019-05-19T00:25:31.618Z,1002.35
2019-05-19T00:26:31.593Z,1002.36
2019-05-19T00:27:31.594Z,1002.34
2019-05-19T00:28:31.567Z,1002.33
2019-05-19T00:29:31.563Z,1002.31
2019-05-19T00:30:31.579Z,1002.33
2019-05-19T00:31:31.538Z,1002.32
2019-05-19T00:32:31.525Z,1002.32
2019-05-19T00:33:31.512Z,1002.37
2019-05-19T00:34:31.502Z,1002.35
2019-05-19T00:35:31.498Z,1002.33
2019-05-19T00:36:31.494Z,1002.30
2019-05-19T00:37:31.476Z,1002.30
2019-05-19T00:38:31.460Z,1002.31
2019-05-19T00:39:31.453Z,1002.30
2019-05-19T00:40:31.434Z,1002.31
2019-05-19T00:41:31.456Z,1002.32
2019-05-19T00:42:31.414Z,1002.32
2019-05-19T00:43:31.406Z,1002.32
2019-05-19T00:44:31.435Z,1002.29
2019-05-19T00:45:31.423Z,1002.26
2019-05-19T00:46:31.379Z,1002.23
2019-05-19T00:47:31.365Z,1002.24
2019-05-19T00:48:31.345Z,1002.23
2019-05-19T00:49:40.974Z,1002.22
2019-05-19T00:50:32.326Z,1002.20
2019-05-19T00:51:31.314Z,1002.17
2019-05-19T00:52:31.405Z,1002.18
2019-05-19T00:53:31.293Z,1002.19
2019-05-19T00:54:31.284Z,1002.16
2019-05-19T00:55:31.270Z,1002.14
2019-05-19T00:56:31.255Z,1002.15
2019-05-19T00:57:31.249Z,1002.16
2019-05-19T00:58:31.320Z,1002.18
2019-05-19T00:59:31.227Z,1002.17
2019-05-19T01:00:31.218Z,1002.19
2019-05-19T01:01:31.206Z,1002.22
2019-05-19T01:02:31.195Z,1002.14
2019-05-19T01:03:31.183Z,1002.14
2019-05-19T01:04:31.248Z,1002.14
2019-05-19T01:05:31.161Z,1002.14
2019-05-19T01:06:31.155Z,1002.09
2019-05-19T01:07:31.131Z,1002.10
2019-05-19T01:08:31.204Z,1002.11
2019-05-19T01:09:31.110Z,1002.10
2019-05-19T01:10:31.100Z,1002.10
2019-05-19T01:11:31.092Z,1002.12
2019-05-19T01:12:31.092Z,1002.12
2019-05-19T01:13:31.071Z,1002.12
2019-05-19T01:14:31.069Z,1002.13
2019-05-19T01:15:31.041Z,1002.11
2019-05-19T01:16:31.032Z,1002.13
2019-05-19T01:17:31.024Z,1002.11
2019-05-19T01:18:31.016Z,1002.10
2019-05-19T01:19:31.081Z,1002.08
2019-05-19T01:20:30.989Z,1002.06
2019-05-19T01:21:30.982Z,1002.05
2019-05-19T01:22:30.968Z,1002.05
2019-05-19T01:23:30.955Z,1002.13
2019-05-19T01:24:31.008Z,1002.13
2019-05-19T01:25:31.038Z,1002.09
2019-05-19T01:26:31.002Z,1002.08
2019-05-19T01:27:30.920Z,1002.12
2019-05-19T01:28:30.908Z,1002.11
2019-05-19T01:29:30.884Z,1002.16
2019-05-19T01:30:30.958Z,1002.13
2019-05-19T01:31:30.868Z,1002.12
2019-05-19T01:32:30.852Z,1002.12
2019-05-19T01:33:30.848Z,1002.04
2019-05-19T01:34:30.834Z,1002.07
2019-05-19T01:35:30.902Z,1002.07
2019-05-19T01:36:30.822Z,1002.13
2019-05-19T01:37:30.814Z,1002.12
2019-05-19T01:38:30.786Z,1002.16
2019-05-19T01:39:30.842Z,1002.16
2019-05-19T01:40:30.847Z,1002.14
2019-05-19T01:41:30.765Z,1002.12
2019-05-19T01:42:30.770Z,1002.12
2019-05-19T01:43:30.734Z,1002.11
2019-05-19T01:44:30.723Z,1002.11
2019-05-19T01:45:30.713Z,1002.11
2019-05-19T01:46:30.696Z,1002.11
2019-05-19T01:47:30.796Z,1002.09
2019-05-19T01:48:30.680Z,1002.07
2019-05-19T01:49:30.669Z,1002.07
2019-05-19T01:50:30.658Z,1002.11
2019-05-19T01:51:30.662Z,1002.11
2019-05-19T01:52:30.739Z,1002.07
2019-05-19T01:53:30.626Z,1002.06
2019-05-19T01:54:30.650Z,1002.09
2019-05-19T01:55:30.597Z,1002.04
2019-05-19T01:56:30.586Z,1002.04
2019-05-19T01:57:30.576Z,1002.07
2019-05-19T01:58:30.649Z,1002.05
2019-05-19T01:59:30.554Z,1002.05
2019-05-19T02:00:30.549Z,1002.04
2019-05-19T02:01:30.532Z,1002.04
2019-05-19T02:02:30.631Z,1002.05
2019-05-19T02:03:30.517Z,1002.02
2019-05-19T02:04:30.506Z,1002.09
2019-05-19T02:05:30.493Z,1002.03
2019-05-19T02:06:31.022Z,1002.05
2019-05-19T02:07:30.477Z,1002.02
2019-05-19T02:08:30.454Z,1002.05
2019-05-19T02:09:30.454Z,1002.03
2019-05-19T02:10:30.435Z,1002.04
2019-05-19T02:11:30.442Z,1002.02
2019-05-19T02:12:30.468Z,1002.04
2019-05-19T02:13:30.402Z,1001.99
2019-05-19T02:14:30.397Z,1001.98
2019-05-19T02:15:30.386Z,1001.97
2019-05-19T02:16:30.376Z,1001.98
2019-05-19T02:17:30.441Z,1001.97
2019-05-19T02:18:30.346Z,1001.95
2019-05-19T02:19:30.426Z,1002.01
2019-05-19T02:20:33.338Z,1001.98
2019-05-19T02:21:30.313Z,1001.96
2019-05-19T02:22:30.306Z,1001.99
2019-05-19T02:23:30.298Z,1001.99
2019-05-19T02:24:30.365Z,1002.00
2019-05-19T02:25:30.275Z,1002.00
2019-05-19T02:26:30.342Z,1001.99
2019-05-19T02:27:30.280Z,1002.01
2019-05-19T02:28:30.236Z,1002.02
2019-05-19T02:29:30.230Z,1001.97
2019-05-19T02:30:30.244Z,1001.99
2019-05-19T02:31:30.219Z,1002.00
2019-05-19T02:32:30.202Z,1001.98
2019-05-19T02:33:30.262Z,1001.99
2019-05-19T02:34:30.181Z,1001.95
2019-05-19T02:35:30.270Z,1001.97
2019-05-19T02:36:30.153Z,1001.94
2019-05-19T02:37:30.146Z,1001.95
2019-05-19T02:38:30.192Z,1001.95
2019-05-19T02:39:30.123Z,1001.98
2019-05-19T02:40:30.108Z,1002.00
2019-05-19T02:41:30.208Z,1001.96
2019-05-19T02:42:30.090Z,1002.01
2019-05-19T02:43:30.074Z,1002.01
2019-05-19T02:44:30.062Z,1001.97
2019-05-19T02:45:30.099Z,1001.98
2019-05-19T02:46:30.043Z,1001.97
2019-05-19T02:47:30.044Z,1002.01
2019-05-19T02:48:30.026Z,1002.02
2019-05-19T02:49:30.009Z,1001.98
2019-05-19T02:50:30.022Z,1001.97
2019-05-19T02:51:29.987Z,1001.98
2019-05-19T02:52:29.978Z,1001.98
2019-05-19T02:53:29.970Z,1001.96
2019-05-19T02:54:29.957Z,1002.00
2019-05-19T02:55:30.054Z,1001.96
2019-05-19T02:56:29.936Z,1002.02
2019-05-19T02:57:29.925Z,1001.96
2019-05-19T02:58:29.918Z,1001.93
2019-05-19T02:59:29.903Z,1001.99
2019-05-19T03:00:29.892Z,1001.98
2019-05-19T03:01:29.961Z,1001.94
2019-05-19T03:02:29.951Z,1001.92
2019-05-19T03:03:29.856Z,1001.90
2019-05-19T03:04:29.855Z,1001.88
2019-05-19T03:05:29.835Z,1001.87
2019-05-19T03:06:29.822Z,1001.85
2019-05-19T03:07:29.822Z,1001.81
2019-05-19T03:08:29.892Z,1001.83
2019-05-19T03:09:29.792Z,1001.79
2019-05-19T03:10:29.808Z,1001.82
2019-05-19T03:11:29.768Z,1001.83
2019-05-19T03:12:29.855Z,1001.85
2019-05-19T03:13:29.860Z,1001.87
2019-05-19T03:14:29.737Z,1001.87
2019-05-19T03:15:29.729Z,1001.89
2019-05-19T03:16:29.729Z,1001.91
2019-05-19T03:17:29.712Z,1001.94
2019-05-19T03:18:29.698Z,1001.96
2019-05-19T03:19:29.765Z,1001.95
2019-05-19T03:20:29.710Z,1001.97
2019-05-19T03:21:29.677Z,1001.96
2019-05-19T03:22:29.666Z,1001.97
2019-05-19T03:23:29.701Z,1002.01
2019-05-19T03:24:29.711Z,1002.06
2019-05-19T03:25:29.627Z,1002.06
2019-05-19T03:26:29.603Z,1002.01
2019-05-19T03:27:29.596Z,1002.04
2019-05-19T03:28:29.581Z,1002.06
2019-05-19T03:29:29.612Z,1002.07
2019-05-19T03:30:29.564Z,1002.08
2019-05-19T03:31:29.551Z,1002.04
2019-05-19T03:32:29.564Z,1002.05
2019-05-19T03:33:29.535Z,1002.06
2019-05-19T03:34:29.567Z,1002.03
2019-05-19T03:35:29.512Z,1002.04
2019-05-19T03:36:29.498Z,1002.06
2019-05-19T03:37:29.484Z,1002.05
2019-05-19T03:38:29.472Z,1002.05
2019-05-19T03:39:29.472Z,1002.05
2019-05-19T03:40:29.537Z,1002.09
2019-05-19T03:41:29.469Z,1002.03
2019-05-19T03:42:29.435Z,1002.06
2019-05-19T03:43:29.423Z,1002.10
2019-05-19T03:44:29.407Z,1002.05
2019-05-19T03:45:29.401Z,1002.05
2019-05-19T03:46:29.497Z,1002.08
2019-05-19T03:47:29.374Z,1002.11
2019-05-19T03:48:29.380Z,1002.10
2019-05-19T03:49:29.357Z,1002.11
2019-05-19T03:50:29.448Z,1002.13
2019-05-19T03:51:31.618Z,1002.16
2019-05-19T03:52:29.317Z,1002.12
2019-05-19T03:53:29.305Z,1002.13
2019-05-19T03:54:29.303Z,1002.10
2019-05-19T03:55:29.289Z,1002.09
2019-05-19T03:56:29.386Z,1002.12
2019-05-19T03:57:29.269Z,1002.10
2019-05-19T03:58:29.368Z,1002.08
2019-05-19T03:59:29.248Z,1002.07
2019-05-19T04:00:29.231Z,1002.10
2019-05-19T04:01:29.303Z,1002.08
2019-05-19T04:02:29.215Z,1002.08
2019-05-19T04:03:29.204Z,1002.06
2019-05-19T04:04:29.193Z,1002.12
2019-05-19T04:05:29.188Z,1002.13
2019-05-19T04:06:29.168Z,1002.11
2019-05-19T04:07:29.268Z,1002.17
2019-05-19T04:08:29.148Z,1002.15
2019-05-19T04:09:29.132Z,1002.18
2019-05-19T04:10:29.131Z,1002.16
2019-05-19T04:11:29.119Z,1002.17
2019-05-19T04:12:29.187Z,1002.20
2019-05-19T04:13:29.093Z,1002.19
2019-05-19T04:14:29.076Z,1002.21
2019-05-19T04:15:29.098Z,1002.22
2019-05-19T04:16:29.062Z,1002.24
2019-05-19T04:17:29.140Z,1002.23
2019-05-19T04:18:29.037Z,1002.19
2019-05-19T04:19:29.034Z,1002.18
2019-05-19T04:20:29.012Z,1002.22
2019-05-19T04:21:38.865Z,1002.20
2019-05-19T04:22:30.021Z,1002.22
2019-05-19T04:23:29.066Z,1002.20
2019-05-19T04:24:28.967Z,1002.23
2019-05-19T04:25:28.962Z,1002.22
2019-05-19T04:26:28.952Z,1002.24
2019-05-19T04:27:28.945Z,1002.21
2019-05-19T04:28:28.924Z,1002.23
2019-05-19T04:29:28.952Z,1002.23
2019-05-19T04:30:28.911Z,1002.28
2019-05-19T04:31:28.900Z,1002.26
2019-05-19T04:32:28.880Z,1002.24
2019-05-19T04:33:28.874Z,1002.22
2019-05-19T04:34:28.955Z,1002.28
2019-05-19T04:35:28.851Z,1002.26
2019-05-19T04:36:28.847Z,1002.25
2019-05-19T04:37:28.831Z,1002.25
2019-05-19T04:38:28.819Z,1002.26
2019-05-19T04:39:28.887Z,1002.26
2019-05-19T04:40:28.797Z,1002.30
2019-05-19T04:41:28.784Z,1002.26
2019-05-19T04:42:28.774Z,1002.26
2019-05-19T04:43:28.757Z,1002.21
2019-05-19T04:44:28.830Z,1002.19
2019-05-19T04:45:28.735Z,1002.24
2019-05-19T04:46:28.835Z,1002.20
2019-05-19T04:47:28.719Z,1002.21
2019-05-19T04:48:28.705Z,1002.20
2019-05-19T04:49:28.695Z,1002.18
2019-05-19T04:50:28.681Z,1002.23
2019-05-19T04:51:28.672Z,1002.17
2019-05-19T04:52:28.739Z,1002.21
2019-05-19T04:53:28.658Z,1002.15
2019-05-19T04:54:28.639Z,1002.13
2019-05-19T04:55:28.635Z,1002.18
2019-05-19T04:56:28.696Z,1002.19
2019-05-19T04:57:28.659Z,1002.20
2019-05-19T04:58:28.596Z,1002.19
2019-05-19T04:59:28.584Z,1002.20
2019-05-19T05:00:28.577Z,1002.15
2019-05-19T05:01:28.672Z,1002.16
2019-05-19T05:02:28.548Z,1002.14
2019-05-19T05:03:28.545Z,1002.14
2019-05-19T05:04:29.707Z,1002.12
2019-05-19T05:05:28.523Z,1002.13
2019-05-19T05:06:28.585Z,1002.14
2019-05-19T05:07:28.496Z,1002.10
2019-05-19T05:08:30.871Z,1002.11
2019-05-19T05:09:28.480Z,1002.12
2019-05-19T05:10:29.444Z,1002.12
2019-05-19T05:11:28.453Z,1002.08
2019-05-19T05:12:28.437Z,1002.09
2019-05-19T05:13:28.533Z,1002.10
2019-05-19T05:14:28.415Z,1002.05
2019-05-19T05:15:28.410Z,1002.07
2019-05-19T05:16:28.390Z,1002.08
2019-05-19T05:17:28.385Z,1002.06
2019-05-19T05:18:28.371Z,1002.08
2019-05-19T05:19:28.384Z,1002.06
2019-05-19T05:20:28.357Z,1002.05
2019-05-19T05:21:28.341Z,1001.99
2019-05-19T05:22:28.360Z,1001.96
2019-05-19T05:23:28.501Z,1001.97
2019-05-19T05:24:28.763Z,1001.99
2019-05-19T05:25:28.297Z,1001.98
2019-05-19T05:26:28.286Z,1002.01
2019-05-19T05:27:28.276Z,1002.01
2019-05-19T05:28:28.257Z,1002.03
2019-05-19T05:29:28.248Z,1002.05
2019-05-19T05:30:28.320Z,1002.07
2019-05-19T05:31:28.230Z,1002.11
2019-05-19T05:32:28.215Z,1002.19
2019-05-19T05:33:28.206Z,1002.17
2019-05-19T05:34:28.273Z,1002.15
2019-05-19T05:35:28.189Z,1002.15
2019-05-19T05:36:28.168Z,1002.12
2019-05-19T05:37:28.168Z,1002.16
2019-05-19T05:38:28.154Z,1002.22
2019-05-19T05:39:28.218Z,1002.18
2019-05-19T05:40:28.124Z,1002.20
2019-05-19T05:41:28.114Z,1002.22
2019-05-19T05:42:31.593Z,1002.25
2019-05-19T05:43:28.098Z,1002.21
2019-05-19T05:44:28.085Z,1002.16
2019-05-19T05:45:28.153Z,1002.12
2019-05-19T05:46:28.117Z,1002.15
2019-05-19T05:47:28.051Z,1002.14
2019-05-19T05:48:28.070Z,1002.15
2019-05-19T05:49:28.029Z,1002.09
2019-05-19T05:50:28.021Z,1002.14
2019-05-19T05:51:28.033Z,1002.16
2019-05-19T05:52:37.961Z,1002.13
2019-05-19T05:53:28.985Z,1002.15
2019-05-19T05:54:27.976Z,1002.20
2019-05-19T05:55:28.070Z,1002.19
2019-05-19T05:56:27.948Z,1002.14
2019-05-19T05:57:27.942Z,1002.16
2019-05-19T05:58:27.926Z,1002.17
2019-05-19T05:59:27.918Z,1002.16
2019-05-19T06:00:27.913Z,1002.11
2019-05-19T06:01:27.931Z,1002.12
2019-05-19T06:02:28.051Z,1002.12
2019-05-19T06:03:27.870Z,1002.17
2019-05-19T06:04:27.869Z,1002.17
2019-05-19T06:05:27.849Z,1002.12
2019-05-19T06:06:27.900Z,1002.16
2019-05-19T06:07:27.839Z,1002.13
2019-05-19T06:08:27.922Z,1002.20
2019-05-19T06:09:27.814Z,1002.20
2019-05-19T06:10:27.801Z,1002.19
2019-05-19T06:11:27.786Z,1002.16
2019-05-19T06:12:27.775Z,1002.15
2019-05-19T06:13:27.818Z,1002.18
2019-05-19T06:14:27.759Z,1002.23
2019-05-19T06:15:27.772Z,1002.26
2019-05-19T06:16:27.729Z,1002.25
2019-05-19T06:17:27.722Z,1002.20
2019-05-19T06:18:27.804Z,1002.19
2019-05-19T06:19:27.696Z,1002.26
2019-05-19T06:20:27.689Z,1002.24
2019-05-19T06:21:27.701Z,1002.26
2019-05-19T06:22:27.668Z,1002.21
2019-05-19T06:23:27.760Z,1002.27
2019-05-19T06:24:27.646Z,1002.23
2019-05-19T06:25:27.819Z,1002.23
2019-05-19T06:26:27.629Z,1002.27
2019-05-19T06:27:27.611Z,1002.27
2019-05-19T06:28:27.618Z,1002.27
2019-05-19T06:29:27.590Z,1002.19
2019-05-19T06:30:27.573Z,1002.19
2019-05-19T06:31:27.587Z,1002.20
2019-05-19T06:32:27.560Z,1002.20
2019-05-19T06:33:27.547Z,1002.18
2019-05-19T06:34:27.546Z,1002.23
2019-05-19T06:35:27.526Z,1002.22
2019-05-19T06:36:27.523Z,1002.20
2019-05-19T06:37:27.621Z,1002.20
2019-05-19T06:38:27.503Z,1002.22
2019-05-19T06:39:27.564Z,1002.21
2019-05-19T06:40:27.470Z,1002.18
2019-05-19T06:41:27.459Z,1002.17
2019-05-19T06:42:27.470Z,1002.15
2019-05-19T06:43:27.434Z,1002.19
2019-05-19T06:44:27.428Z,1002.15
2019-05-19T06:45:27.506Z,1002.15
2019-05-19T06:46:27.401Z,1002.15
2019-05-19T06:47:27.390Z,1002.17
2019-05-19T06:48:27.381Z,1002.16
2019-05-19T06:49:27.372Z,1002.17
2019-05-19T06:50:27.440Z,1002.09
2019-05-19T06:51:27.346Z,1002.11
2019-05-19T06:52:27.344Z,1002.08
2019-05-19T06:53:27.328Z,1002.09
2019-05-19T06:54:27.317Z,1002.09
2019-05-19T06:55:27.440Z,1002.08
2019-05-19T06:56:27.293Z,1002.05
2019-05-19T06:57:27.296Z,1002.08
2019-05-19T06:58:27.273Z,1002.09
2019-05-19T06:59:27.260Z,1002.08
2019-05-19T07:00:27.254Z,1002.08
2019-05-19T07:01:27.296Z,1002.10
2019-05-19T07:02:27.240Z,1002.06
2019-05-19T07:03:27.227Z,1002.06
2019-05-19T07:04:27.208Z,1002.08
2019-05-19T07:05:27.203Z,1002.06
2019-05-19T07:06:27.186Z,1002.06
2019-05-19T07:07:27.285Z,1002.00
2019-05-19T07:08:27.172Z,1002.04
2019-05-19T07:09:27.207Z,1001.95
2019-05-19T07:10:27.146Z,1001.97
2019-05-19T07:11:27.141Z,1001.94
2019-05-19T07:12:27.155Z,1001.95
2019-05-19T07:13:27.111Z,1001.99
2019-05-19T07:14:27.104Z,1001.98
2019-05-19T07:15:27.104Z,1001.98
2019-05-19T07:16:27.075Z,1001.96
2019-05-19T07:17:27.070Z,1001.97
2019-05-19T07:18:27.141Z,1001.97
2019-05-19T07:19:27.043Z,1001.97
2019-05-19T07:20:27.036Z,1001.96
2019-05-19T07:21:27.093Z,1001.96
2019-05-19T07:22:27.009Z,1001.93
2019-05-19T07:23:28.594Z,1001.96
2019-05-19T07:24:26.987Z,1001.98
2019-05-19T07:25:26.984Z,1001.96
2019-05-19T07:26:26.985Z,1001.99
2019-05-19T07:27:26.960Z,1001.97
2019-05-19T07:28:26.951Z,1001.96
2019-05-19T07:29:26.977Z,1001.94
2019-05-19T07:30:26.924Z,1001.95
2019-05-19T07:31:26.916Z,1001.98
2019-05-19T07:32:26.918Z,1001.94
2019-05-19T07:33:26.899Z,1001.98
2019-05-19T07:34:26.965Z,1001.96
2019-05-19T07:35:26.871Z,1001.91
2019-05-19T07:36:26.858Z,1001.95
2019-05-19T07:37:26.850Z,1001.92
2019-05-19T07:38:26.886Z,1001.97
2019-05-19T07:39:26.941Z,1001.90
2019-05-19T07:40:26.821Z,1001.94
2019-05-19T07:41:26.811Z,1001.93
2019-05-19T07:42:26.805Z,1001.94
2019-05-19T07:43:26.789Z,1001.93
2019-05-19T07:44:26.774Z,1001.96
2019-05-19T07:45:26.870Z,1001.95
2019-05-19T07:46:26.752Z,1001.92
2019-05-19T07:47:26.755Z,1001.98
2019-05-19T07:48:26.741Z,1001.97
2019-05-19T07:49:26.725Z,1001.96
2019-05-19T07:50:26.710Z,1001.93
2019-05-19T07:51:26.791Z,1001.91
2019-05-19T07:52:26.752Z,1001.85
2019-05-19T07:53:26.681Z,1001.91
2019-05-19T07:54:26.672Z,1001.93
2019-05-19T07:55:26.684Z,1001.88
2019-05-19T07:56:26.645Z,1001.87
2019-05-19T07:57:26.633Z,1001.97
2019-05-19T07:58:26.629Z,1001.85
2019-05-19T07:59:26.618Z,1001.85
2019-05-19T08:00:26.631Z,1001.92
2019-05-19T08:01:26.699Z,1001.87
2019-05-19T08:02:26.579Z,1001.89
2019-05-19T08:03:26.574Z,1001.82
2019-05-19T08:04:26.565Z,1001.83
2019-05-19T08:05:26.548Z,1001.86
2019-05-19T08:06:26.630Z,1001.85
2019-05-19T08:07:26.535Z,1001.88
2019-05-19T08:08:26.585Z,1001.82
2019-05-19T08:09:26.510Z,1001.79
2019-05-19T08:10:26.501Z,1001.84
2019-05-19T08:11:26.486Z,1001.79
2019-05-19T08:12:26.532Z,1001.78
2019-05-19T08:13:26.469Z,1001.78
2019-05-19T08:14:26.457Z,1001.80
2019-05-19T08:15:26.446Z,1001.82
2019-05-19T08:16:26.438Z,1001.81
2019-05-19T08:17:26.430Z,1001.74
2019-05-19T08:18:26.496Z,1001.73
2019-05-19T08:19:26.400Z,1001.75
2019-05-19T08:20:26.388Z,1001.77
2019-05-19T08:21:26.410Z,1001.79
2019-05-19T08:22:26.373Z,1001.76
2019-05-19T08:23:26.391Z,1001.75
2019-05-19T08:24:26.347Z,1001.80
2019-05-19T08:25:26.339Z,1001.77
2019-05-19T08:26:26.325Z,1001.74
2019-05-19T08:27:26.315Z,1001.76
2019-05-19T08:28:26.313Z,1001.79
2019-05-19T08:29:26.403Z,1001.79
2019-05-19T08:30:26.294Z,1001.73
2019-05-19T08:31:26.287Z,1001.74
2019-05-19T08:32:26.284Z,1001.78
2019-05-19T08:33:26.337Z,1001.83
2019-05-19T08:34:26.243Z,1001.89
2019-05-19T08:35:26.240Z,1001.84
2019-05-19T08:36:26.221Z,1001.84
2019-05-19T08:37:26.225Z,1001.88
2019-05-19T08:38:26.205Z,1001.88
2019-05-19T08:39:26.219Z,1001.97
2019-05-19T08:40:26.185Z,1001.96
2019-05-19T08:41:26.175Z,1002.03
2019-05-19T08:42:26.160Z,1001.99
2019-05-19T08:43:26.148Z,1002.09
2019-05-19T08:44:26.169Z,1001.97
2019-05-19T08:45:26.126Z,1002.02
2019-05-19T08:46:26.119Z,1001.97
2019-05-19T08:47:26.128Z,1001.94
2019-05-19T08:48:26.121Z,1001.98
2019-05-19T08:49:26.112Z,1001.98
2019-05-19T08:50:26.084Z,1002.00
2019-05-19T08:51:26.104Z,1002.06
2019-05-19T08:52:26.056Z,1002.10
2019-05-19T08:53:26.056Z,1002.09
2019-05-19T08:54:26.054Z,1002.17
2019-05-19T08:55:26.025Z,1002.04
2019-05-19T08:56:26.022Z,1002.09
2019-05-19T08:57:26.005Z,1002.13
2019-05-19T08:58:25.993Z,1002.13
2019-05-19T08:59:25.993Z,1002.12
2019-05-19T09:00:25.995Z,1002.12
2019-05-19T09:01:25.969Z,1002.14
2019-05-19T09:02:25.959Z,1002.11
2019-05-19T09:03:25.948Z,1002.12
2019-05-19T09:04:25.933Z,1002.14
2019-05-19T09:05:25.953Z,1002.21
2019-05-19T09:06:25.925Z,1002.35
2019-05-19T09:07:25.903Z,1002.22
2019-05-19T09:08:25.916Z,1002.18
2019-05-19T09:09:25.899Z,1002.17
2019-05-19T09:10:25.897Z,1002.21
2019-05-19T09:11:25.895Z,1002.06
2019-05-19T09:12:25.854Z,1002.16
2019-05-19T09:13:25.843Z,1002.20
2019-05-19T09:14:25.835Z,1002.15
2019-05-19T09:15:25.872Z,1002.29
2019-05-19T09:16:25.814Z,1002.35
2019-05-19T09:17:25.805Z,1002.24
2019-05-19T09:18:25.820Z,1002.30
2019-05-19T09:19:25.790Z,1002.25
2019-05-19T09:20:25.781Z,1002.30
2019-05-19T09:21:25.772Z,1002.32
2019-05-19T09:22:25.767Z,1002.30
2019-05-19T09:23:25.755Z,1002.31
2019-05-19T09:24:30.615Z,1002.24
2019-05-19T09:25:26.733Z,1002.32
2019-05-19T09:26:25.765Z,1002.31
2019-05-19T09:27:25.725Z,1002.25
2019-05-19T09:28:25.700Z,1002.23
2019-05-19T09:29:25.699Z,1002.17
2019-05-19T09:30:25.696Z,1002.21
2019-05-19T09:31:25.677Z,1002.26
2019-05-19T09:32:25.716Z,1002.22
2019-05-19T09:33:25.657Z,1002.22
2019-05-19T09:34:25.647Z,1002.19
2019-05-19T09:35:25.642Z,1002.13
2019-05-19T09:36:25.629Z,1002.16
2019-05-19T09:37:25.622Z,1002.21
2019-05-19T09:38:25.666Z,1002.15
2019-05-19T09:39:25.598Z,1002.13
2019-05-19T09:40:26.795Z,1002.12
2019-05-19T09:41:25.590Z,1002.14
2019-05-19T09:42:25.574Z,1002.18
2019-05-19T09:43:25.578Z,1002.16
2019-05-19T09:44:25.573Z,1002.17
2019-05-19T09:45:25.562Z,1002.13
2019-05-19T09:46:25.543Z,1002.17
2019-05-19T09:47:25.536Z,1002.24
2019-05-19T09:48:25.531Z,1002.31
2019-05-19T09:49:25.539Z,1002.28
2019-05-19T09:50:25.504Z,1002.26
2019-05-19T09:51:25.497Z,1002.16
2019-05-19T09:52:25.708Z,1002.17
2019-05-19T09:53:25.495Z,1002.22
2019-05-19T09:54:25.518Z,1002.16
2019-05-19T09:55:25.471Z,1002.18
2019-05-19T09:56:25.453Z,1002.16
2019-05-19T09:57:25.448Z,1002.19
2019-05-19T09:58:25.454Z,1002.19
2019-05-19T09:59:25.429Z,1002.14
2019-05-19T10:00:25.423Z,1002.15
2019-05-19T10:01:25.456Z,1002.19
2019-05-19T10:02:25.448Z,1002.19
2019-05-19T10:03:25.439Z,1002.21
2019-05-19T10:04:25.504Z,1002.13
2019-05-19T10:05:25.374Z,1002.18
2019-05-19T10:06:25.365Z,1002.16
2019-05-19T10:07:25.357Z,1002.16
2019-05-19T10:08:25.341Z,1002.19
2019-05-19T10:09:25.348Z,1002.18
2019-05-19T10:10:25.338Z,1002.10
2019-05-19T10:11:25.345Z,1002.04
2019-05-19T10:12:25.306Z,1002.03
2019-05-19T10:13:25.301Z,1002.09
2019-05-19T10:14:25.295Z,1002.06
2019-05-19T10:15:25.330Z,1001.94
2019-05-19T10:16:25.272Z,1001.99
2019-05-19T10:17:25.260Z,1002.04
2019-05-19T10:18:25.300Z,1002.01
2019-05-19T10:19:25.239Z,1002.06
2019-05-19T10:20:25.243Z,1002.04
2019-05-19T10:21:25.270Z,1002.04
2019-05-19T10:22:25.268Z,1001.95
2019-05-19T10:23:25.204Z,1001.95
2019-05-19T10:24:25.196Z,1001.99
2019-05-19T10:25:25.248Z,1002.02
2019-05-19T10:26:25.186Z,1001.99
2019-05-19T10:27:25.168Z,1002.00
2019-05-19T10:28:25.158Z,1001.97
2019-05-19T10:29:25.170Z,1001.92
2019-05-19T10:30:25.138Z,1001.90
2019-05-19T10:31:25.142Z,1001.87
2019-05-19T10:32:25.127Z,1001.92
2019-05-19T10:33:25.114Z,1001.80
2019-05-19T10:34:25.101Z,1001.87
2019-05-19T10:35:25.092Z,1001.91
2019-05-19T10:36:25.096Z,1001.93
2019-05-19T10:37:25.084Z,1001.92
2019-05-19T10:38:25.076Z,1001.91
2019-05-19T10:39:25.058Z,1001.90
2019-05-19T10:40:25.427Z,1001.89
2019-05-19T10:41:25.044Z,1001.83
2019-05-19T10:42:25.041Z,1001.36
2019-05-19T10:43:25.413Z,1001.80
2019-05-19T10:44:25.024Z,1001.88
2019-05-19T10:45:25.008Z,1001.62
2019-05-19T10:46:25.015Z,1001.86
2019-05-19T10:47:24.990Z,1001.76
2019-05-19T10:48:24.995Z,1001.77
2019-05-19T10:49:24.967Z,1001.79
2019-05-19T10:50:24.960Z,1001.25
2019-05-19T10:51:24.958Z,1001.20
2019-05-19T10:52:24.974Z,1001.18
2019-05-19T10:53:24.929Z,1001.58
2019-05-19T10:54:24.950Z,1001.57
2019-05-19T10:55:36.188Z,1001.15
2019-05-19T10:56:25.898Z,1001.12
2019-05-19T10:57:24.896Z,1001.08
2019-05-19T10:58:24.885Z,1001.12
2019-05-19T10:59:24.901Z,1001.05
2019-05-19T11:00:24.862Z,1001.07
2019-05-19T11:01:24.878Z,1001.09
2019-05-19T11:02:24.839Z,1000.99
2019-05-19T11:03:24.832Z,1000.97
2019-05-19T11:04:24.819Z,1001.30
2019-05-19T11:05:24.824Z,1001.02
2019-05-19T11:06:24.801Z,1001.01
2019-05-19T11:07:24.789Z,1000.94
2019-05-19T11:08:24.802Z,1000.93
2019-05-19T11:09:24.817Z,1000.92
2019-05-19T11:10:24.767Z,1000.92
2019-05-19T11:11:24.751Z,1000.89
2019-05-19T11:12:24.740Z,1000.86
2019-05-19T11:13:24.732Z,1000.87
2019-05-19T11:14:24.720Z,1000.86
2019-05-19T11:15:24.715Z,1000.84
2019-05-19T11:16:24.701Z,1000.88
2019-05-19T11:17:24.689Z,1000.85
2019-05-19T11:18:24.682Z,1000.83
2019-05-19T11:19:24.665Z,1000.90
2019-05-19T11:20:24.670Z,1000.99
2019-05-19T11:21:24.643Z,1000.92
2019-05-19T11:22:24.698Z,1000.84
2019-05-19T11:23:24.627Z,1000.90
2019-05-19T11:24:24.614Z,1000.77
2019-05-19T11:25:33.483Z,1000.85
2019-05-19T11:26:25.586Z,1000.71
2019-05-19T11:27:24.586Z,1000.84
2019-05-19T11:28:24.571Z,1000.77
2019-05-19T11:29:24.580Z,1000.76
2019-05-19T11:30:24.567Z,1000.78
2019-05-19T11:31:24.538Z,1000.74
2019-05-19T11:32:24.529Z,1000.69
2019-05-19T11:33:24.538Z,1000.84
2019-05-19T11:34:24.509Z,1000.82
2019-05-19T11:35:24.515Z,1000.84
2019-05-19T11:36:24.486Z,1000.79
2019-05-19T11:37:24.475Z,1000.82
2019-05-19T11:38:24.461Z,1000.78
2019-05-19T11:39:24.503Z,1000.78
2019-05-19T11:40:24.443Z,1000.65
2019-05-19T11:41:24.429Z,1000.67
2019-05-19T11:42:24.417Z,1000.65
2019-05-19T11:43:24.406Z,1000.63
2019-05-19T11:44:24.405Z,1000.69
2019-05-19T11:45:24.399Z,1000.59
2019-05-19T11:46:24.436Z,1000.65
2019-05-19T11:47:24.371Z,1000.58
2019-05-19T11:48:24.355Z,1000.59
2019-05-19T11:49:24.394Z,1000.63
2019-05-19T11:50:24.334Z,1000.59
2019-05-19T11:51:24.361Z,1000.59
2019-05-19T11:52:24.313Z,1000.71
2019-05-19T11:53:24.302Z,1000.67
2019-05-19T11:54:24.291Z,1000.63
2019-05-19T11:55:24.281Z,1000.72
2019-05-19T11:56:24.269Z,1000.68
2019-05-19T11:57:24.272Z,1000.63
2019-05-19T11:58:24.254Z,1000.44
2019-05-19T11:59:24.237Z,1000.61
2019-05-19T12:00:24.234Z,1000.63
2019-05-19T12:01:24.221Z,1000.45
2019-05-19T12:02:24.221Z,1000.38
2019-05-19T12:03:24.198Z,1000.43
2019-05-19T12:04:24.195Z,1000.58
2019-05-19T12:05:24.207Z,1000.58